Weather at Mikonos Airport

Public forecast

Using degrees Celsius for public forecast. Weather courtesy of forecast.io.

Current aviation weather report (METAR) for Mikonos Airport

Retrieved 2020/10/21 17:50 UTC (1 hour ago):

LGMK 211750Z 36010KT 9999 SCT010 SCT025 19/13 Q1018

Aviation forecast (TAF) for Mikonos Airport

Forecast is more than 12 hours old.

Retrieved 2012/09/27 00:18 UTC (8 years ago):

TAF TAF LGMK 272300Z 2800/2909 36016KT 9999 FEW020